KAKR/AKR METAR and TAF weather

Enter ICAO airport designator
Station Type Date Time Source
KAKR METAR 2021/03/03 19:54 UTC NOAA

KAKR 031954Z AUTO 27014KT 10SM CLR 15/M02 A2985 RMK AO2 SLP113 T01501017


Station Type Date Time Source
KAKR Decoded METAR 2021/03/03 19:54 UTC NOAA

AKRON FULTON INTERNATIONAL, OH, United States (KAKR) 41-02N 081-28W 363M
Mar 03, 2021 - 02:54 PM EST / 2021.03.03 1954 UTC
Wind: from the W (270 degrees) at 16 MPH (14 KT):0
Visibility: 10 mile(s):0
Sky conditions: clear
Temperature: 59.0 F (15.0 C)
Dew Point: 28.9 F (-1.7 C)
Relative Humidity: 31%
Pressure (altimeter): 29.85 in. Hg (1010 hPa)
ob: KAKR 031954Z AUTO 27014KT 10SM CLR 15/M02 A2985 RMK AO2 SLP113 T01501017
cycle: 20

Station Type Date Time Source
KAKR TAF UTC NOAA

Error!

Example: see airport list